createdAt,value
2019-05-17T00:01:27.050Z,18.67
2019-05-17T00:03:59.572Z,21.93
2019-05-17T00:06:32.554Z,26.23
2019-05-17T00:09:07.097Z,22.30
2019-05-17T00:11:40.078Z,21.33
2019-05-17T00:14:12.752Z,19.27
2019-05-17T00:16:46.955Z,19.90
2019-05-17T00:19:21.998Z,20.70
2019-05-17T00:21:56.676Z,19.60
2019-05-17T00:24:29.193Z,18.13
2019-05-17T00:27:01.795Z,18.40
2019-05-17T00:29:37.011Z,18.40
2019-05-17T00:32:09.073Z,18.40
2019-05-17T00:34:42.270Z,18.90
2019-05-17T00:37:17.183Z,21.17
2019-05-17T00:39:49.372Z,23.67
2019-05-17T00:42:22.048Z,26.53
2019-05-17T00:44:56.528Z,22.33
2019-05-17T00:47:29.253Z,21.93
2019-05-17T00:50:03.262Z,24.37
2019-05-17T00:52:36.910Z,24.53
2019-05-17T00:55:10.977Z,22.00
2019-05-17T00:57:43.767Z,21.13
2019-05-17T01:00:17.563Z,19.10
2019-05-17T01:02:50.256Z,19.33
2019-05-17T01:05:22.917Z,19.60
2019-05-17T01:07:57.252Z,18.47
2019-05-17T01:10:29.404Z,19.73
2019-05-17T01:13:02.079Z,20.77
2019-05-17T01:15:36.839Z,20.57
2019-05-17T01:18:10.824Z,19.37
2019-05-17T01:20:44.124Z,18.90
2019-05-17T01:23:16.803Z,18.30
2019-05-17T01:25:49.541Z,18.57
2019-05-17T01:28:21.771Z,20.37
2019-05-17T01:30:56.833Z,20.17
2019-05-17T01:33:29.262Z,20.47
2019-05-17T01:36:03.568Z,18.57
2019-05-17T01:38:37.779Z,18.97
2019-05-17T01:41:10.460Z,21.27
2019-05-17T01:43:43.198Z,21.80
2019-05-17T01:46:17.174Z,22.27
2019-05-17T01:48:50.144Z,21.30
2019-05-17T01:51:22.433Z,22.90
2019-05-17T01:53:57.213Z,23.73
2019-05-17T01:56:29.408Z,22.43
2019-05-17T01:59:02.403Z,21.40
2019-05-17T02:01:37.126Z,22.67
2019-05-17T02:04:09.301Z,22.23
2019-05-17T02:06:41.977Z,22.67
2019-05-17T02:09:24.975Z,24.07
2019-05-17T02:11:48.672Z,25.43
2019-05-17T02:14:21.447Z,24.73
2019-05-17T02:16:54.529Z,25.10
2019-05-17T02:19:27.427Z,26.87
2019-05-17T02:22:00.200Z,25.77
2019-05-17T02:24:32.887Z,25.70
2019-05-17T02:27:05.756Z,26.53
2019-05-17T02:29:38.853Z,25.93
2019-05-17T02:32:12.964Z,25.93
2019-05-17T02:34:47.083Z,27.27
2019-05-17T02:37:22.904Z,26.63
2019-05-17T02:40:03.212Z,26.47
2019-05-17T02:42:28.701Z,25.13
2019-05-17T02:45:03.141Z,24.97
2019-05-17T02:47:35.284Z,24.70
2019-05-17T02:50:08.611Z,25.37
2019-05-17T02:52:43.797Z,25.77
2019-05-17T02:55:16.955Z,25.77
2019-05-17T02:57:52.688Z,25.43
2019-05-17T03:00:24.373Z,26.40
2019-05-17T03:02:57.754Z,26.30
2019-05-17T03:05:33.443Z,27.50
2019-05-17T03:08:04.843Z,29.07
2019-05-17T03:10:37.384Z,29.43
2019-05-17T03:13:12.803Z,28.27
2019-05-17T03:15:44.902Z,28.53
2019-05-17T03:18:17.989Z,29.23
2019-05-17T03:20:52.563Z,29.70
2019-05-17T03:23:25.288Z,30.13
2019-05-17T03:25:57.972Z,30.13
2019-05-17T03:28:33.544Z,30.47
2019-05-17T03:31:08.483Z,30.63
2019-05-17T03:33:45.324Z,31.27
2019-05-17T03:36:16.906Z,30.33
2019-05-17T03:38:48.903Z,28.23
2019-05-17T03:41:28.489Z,30.77
2019-05-17T03:43:55.837Z,31.33
2019-05-17T03:46:28.516Z,31.57
2019-05-17T03:49:03.888Z,30.53
2019-05-17T03:51:35.410Z,29.77
2019-05-17T03:54:08.090Z,31.03
2019-05-17T03:56:42.825Z,30.83
2019-05-17T03:59:15.084Z,30.13
2019-05-17T04:01:47.868Z,27.97
2019-05-17T04:04:22.869Z,27.43
2019-05-17T04:06:54.451Z,30.73
2019-05-17T04:09:28.155Z,29.20
2019-05-17T04:12:02.797Z,33.50
2019-05-17T04:14:35.161Z,32.43
2019-05-17T04:17:07.778Z,35.33
2019-05-17T04:19:42.610Z,33.97
2019-05-17T04:22:14.616Z,33.07
2019-05-17T04:24:46.910Z,31.53
2019-05-17T04:27:22.785Z,32.43
2019-05-17T04:29:53.792Z,33.67
2019-05-17T04:32:26.034Z,31.83
2019-05-17T04:34:58.752Z,31.87
2019-05-17T04:37:33.591Z,28.83
2019-05-17T04:40:07.679Z,27.77
2019-05-17T04:42:43.519Z,28.77
2019-05-17T04:45:15.601Z,32.63
2019-05-17T04:47:49.402Z,38.00
2019-05-17T04:50:23.148Z,41.83
2019-05-17T04:52:56.117Z,42.10
2019-05-17T04:55:28.781Z,33.83
2019-05-17T04:58:03.897Z,34.43
2019-05-17T05:00:38.163Z,34.00
2019-05-17T05:06:19.482Z,28.90
2019-05-17T05:08:56.610Z,30.50
2019-05-17T05:11:51.576Z,29.27
2019-05-17T05:14:12.820Z,29.17
2019-05-17T05:16:44.996Z,28.13
2019-05-17T05:19:18.735Z,29.20
2019-05-17T05:21:57.728Z,27.97
2019-05-17T05:24:33.222Z,27.10
2019-05-17T05:27:18.582Z,26.83
2019-05-17T05:29:59.222Z,29.73
2019-05-17T05:32:39.051Z,28.63
2019-05-17T05:35:24.758Z,28.57
2019-05-17T05:38:07.708Z,27.53
2019-05-17T05:40:47.188Z,28.60
2019-05-17T05:43:34.441Z,28.07
2019-05-17T05:46:23.610Z,28.03
2019-05-17T05:49:01.870Z,25.13
2019-05-17T05:51:52.227Z,24.63
2019-05-17T05:54:41.758Z,25.30
2019-05-17T05:57:42.101Z,24.87
2019-05-17T06:07:03.895Z,24.67
2019-05-17T06:38:56.795Z,20.30
2019-05-17T08:49:35.804Z,18.03
2019-05-17T09:59:09.865Z,20.13
2019-05-17T10:01:33.744Z,21.53
2019-05-17T10:04:06.970Z,21.47
2019-05-17T10:06:40.158Z,20.40
2019-05-17T10:09:12.890Z,20.20
2019-05-17T10:11:45.554Z,21.33
2019-05-17T10:14:25.775Z,21.97
2019-05-17T10:17:00.299Z,21.87
2019-05-17T10:19:32.659Z,22.50
2019-05-17T10:22:05.379Z,21.60
2019-05-17T10:24:42.028Z,21.27
2019-05-17T10:27:14.574Z,20.57
2019-05-17T10:29:46.496Z,19.90
2019-05-17T10:32:20.480Z,20.10
2019-05-17T10:34:53.596Z,19.33
2019-05-17T10:37:26.265Z,20.40
2019-05-17T10:39:58.954Z,19.00
2019-05-17T10:42:31.635Z,20.33
2019-05-17T10:45:05.748Z,19.20
2019-05-17T10:47:39.695Z,19.10
2019-05-17T10:50:17.556Z,18.90
2019-05-17T10:52:50.560Z,18.67
2019-05-17T10:55:23.239Z,19.83
2019-05-17T10:57:56.002Z,19.67
2019-05-17T11:00:30.321Z,19.70
2019-05-17T11:03:03.620Z,21.90
2019-05-17T11:05:36.283Z,22.43
2019-05-17T11:08:10.640Z,21.80
2019-05-17T11:10:44.409Z,21.77
2019-05-17T11:13:17.205Z,20.00
2019-05-17T11:15:49.869Z,19.20
2019-05-17T11:18:22.547Z,18.77
2019-05-17T11:20:55.238Z,18.60
2019-05-17T11:23:27.535Z,18.63
2019-05-17T11:26:00.191Z,19.13
2019-05-17T11:28:32.522Z,20.43
2019-05-17T11:31:07.599Z,19.30
2019-05-17T11:33:40.801Z,19.43
2019-05-17T11:36:13.457Z,19.40
2019-05-17T11:38:46.237Z,20.10
2019-05-17T11:41:21.531Z,19.43
2019-05-17T11:43:57.027Z,20.53
2019-05-17T11:46:36.108Z,20.97
2019-05-17T11:49:08.346Z,21.83
2019-05-17T11:51:41.023Z,21.00
2019-05-17T11:54:13.359Z,21.77
2019-05-17T11:56:46.047Z,21.60
2019-05-17T11:59:18.734Z,22.03
2019-05-17T12:01:51.409Z,20.30
2019-05-17T12:04:24.059Z,21.57
2019-05-17T12:06:56.667Z,21.80
2019-05-17T12:09:37.239Z,20.40
2019-05-17T12:12:06.527Z,21.13
2019-05-17T12:14:39.211Z,23.30
2019-05-17T12:17:11.843Z,21.83
2019-05-17T12:19:44.560Z,22.07
2019-05-17T12:22:17.341Z,19.13
2019-05-17T12:24:56.483Z,20.70
2019-05-17T12:27:29.269Z,21.00
2019-05-17T12:30:02.427Z,18.53
2019-05-17T12:32:38.454Z,19.23
2019-05-17T12:35:11.252Z,17.33
2019-05-17T12:37:44.125Z,18.03
2019-05-17T12:47:08.697Z,17.70
2019-05-17T12:52:15.180Z,17.00
2019-05-17T12:54:49.505Z,16.50
2019-05-17T12:57:22.801Z,18.20
2019-05-17T12:59:55.486Z,18.60
2019-05-17T13:02:28.259Z,19.57
2019-05-17T13:05:00.934Z,18.37
2019-05-17T13:07:33.624Z,21.47
2019-05-17T13:10:07.824Z,19.00
2019-05-17T13:12:40.512Z,19.20
2019-05-17T13:15:13.591Z,21.57
2019-05-17T13:17:46.270Z,31.40
2019-05-17T13:20:19.675Z,26.33
2019-05-17T13:22:52.352Z,21.83
2019-05-17T13:25:25.338Z,22.87
2019-05-17T13:27:58.020Z,21.30
2019-05-17T13:30:32.438Z,21.80
2019-05-17T13:33:05.325Z,29.17
2019-05-17T13:35:38.009Z,23.53
2019-05-17T13:38:10.690Z,25.03
2019-05-17T13:40:43.365Z,26.17
2019-05-17T13:43:16.045Z,26.97
2019-05-17T13:45:48.277Z,24.90
2019-05-17T13:48:22.219Z,28.63
2019-05-17T13:50:55.095Z,22.87
2019-05-17T13:53:27.695Z,29.13
2019-05-17T13:56:00.359Z,23.00
2019-05-17T13:58:33.132Z,23.07
2019-05-17T14:01:05.915Z,20.70
2019-05-17T14:03:38.622Z,22.53
2019-05-17T14:06:12.306Z,21.03
2019-05-17T14:08:44.603Z,21.10
2019-05-17T14:11:17.245Z,19.07
2019-05-17T14:13:49.923Z,18.23
2019-05-17T14:16:22.615Z,19.30
2019-05-17T14:18:55.286Z,18.77
2019-05-17T14:21:27.959Z,18.60
2019-05-17T14:24:00.643Z,18.10
2019-05-17T14:26:33.677Z,19.40
2019-05-17T14:29:06.407Z,20.83
2019-05-17T14:31:39.104Z,19.03
2019-05-17T14:34:11.869Z,18.77
2019-05-17T14:36:44.469Z,16.03
2019-05-17T14:39:18.157Z,16.67
2019-05-17T14:41:50.830Z,15.57
2019-05-17T14:44:23.510Z,16.90
2019-05-17T14:46:56.197Z,16.80
2019-05-17T14:49:28.881Z,16.73
2019-05-17T14:52:01.548Z,15.53
2019-05-17T14:54:34.225Z,16.07
2019-05-17T14:57:06.929Z,15.03
2019-05-17T14:59:39.595Z,15.27
2019-05-17T15:02:12.251Z,14.77
2019-05-17T15:04:44.948Z,14.50
2019-05-17T15:07:17.219Z,15.07
2019-05-17T15:09:51.741Z,16.73
2019-05-17T15:12:28.471Z,15.50
2019-05-17T15:15:03.794Z,13.90
2019-05-17T15:17:41.380Z,13.10
2019-05-17T15:20:16.525Z,14.73
2019-05-17T15:22:50.523Z,13.87
2019-05-17T15:25:23.986Z,13.50
2019-05-17T15:27:57.927Z,13.57
2019-05-17T15:30:34.834Z,13.87
2019-05-17T15:33:10.207Z,14.83
2019-05-17T15:35:46.473Z,14.90
2019-05-17T15:38:19.866Z,16.07
2019-05-17T15:40:52.967Z,14.33
2019-05-17T15:43:25.955Z,13.83
2019-05-17T15:45:58.640Z,13.90
2019-05-17T15:48:31.320Z,13.13
2019-05-17T15:51:04.039Z,12.30
2019-05-17T15:53:36.670Z,13.93
2019-05-17T15:56:08.961Z,12.87
2019-05-17T15:58:41.204Z,12.57
2019-05-17T16:01:13.894Z,12.33
2019-05-17T16:03:46.572Z,12.40
2019-05-17T16:06:19.260Z,12.63
2019-05-17T16:08:51.940Z,12.57
2019-05-17T16:11:24.617Z,13.33
2019-05-17T16:13:57.293Z,13.00
2019-05-17T16:16:29.970Z,13.00
2019-05-17T16:19:02.223Z,14.13
2019-05-17T16:21:34.534Z,12.93
2019-05-17T16:24:07.284Z,13.33
2019-05-17T16:26:40.483Z,13.30
2019-05-17T16:29:13.162Z,14.10
2019-05-17T16:31:45.893Z,12.70
2019-05-17T16:34:18.557Z,13.10
2019-05-17T16:36:51.199Z,13.07
2019-05-17T16:39:23.891Z,11.77
2019-05-17T16:41:56.561Z,12.87
2019-05-17T16:44:29.243Z,12.63
2019-05-17T16:47:01.927Z,12.50
2019-05-17T16:49:34.599Z,13.43
2019-05-17T16:52:07.285Z,12.77
2019-05-17T16:54:39.959Z,12.73
2019-05-17T16:57:12.897Z,11.90
2019-05-17T16:59:45.516Z,12.77
2019-05-17T17:02:18.200Z,12.47
2019-05-17T17:04:51.290Z,13.53
2019-05-17T17:07:23.966Z,13.67
2019-05-17T17:09:56.645Z,13.40
2019-05-17T17:12:29.427Z,13.93
2019-05-17T17:15:02.036Z,13.63
2019-05-17T17:17:34.785Z,14.70
2019-05-17T17:20:08.562Z,14.53
2019-05-17T17:22:41.267Z,14.30
2019-05-17T17:25:14.162Z,12.63
2019-05-17T17:27:47.245Z,13.23
2019-05-17T17:30:20.073Z,13.23
2019-05-17T17:32:52.385Z,13.13
2019-05-17T17:35:25.092Z,12.87
2019-05-17T17:37:59.304Z,12.77
2019-05-17T17:40:31.988Z,12.30
2019-05-17T17:43:04.649Z,12.73
2019-05-17T17:45:37.416Z,12.10
2019-05-17T17:48:10.210Z,12.80
2019-05-17T17:50:44.871Z,13.20
2019-05-17T17:53:17.137Z,12.70
2019-05-17T17:55:49.797Z,12.77
2019-05-17T17:58:22.529Z,13.10
2019-05-17T18:00:55.143Z,12.87
2019-05-17T18:03:27.838Z,12.67
2019-05-17T18:06:00.505Z,13.03
2019-05-17T18:08:34.722Z,14.07
2019-05-17T18:11:07.611Z,19.97
2019-05-17T18:13:40.395Z,19.73
2019-05-17T18:16:13.077Z,17.83
2019-05-17T18:18:45.856Z,16.87
2019-05-17T18:21:18.669Z,17.40
2019-05-17T18:23:51.539Z,17.03
2019-05-17T21:07:07.476Z,30.90
2019-05-17T21:09:40.370Z,30.43
2019-05-17T21:12:13.039Z,31.27
2019-05-17T21:14:45.830Z,31.77
2019-05-17T21:17:18.504Z,31.47
2019-05-17T21:19:51.193Z,32.93
2019-05-17T21:22:23.867Z,33.53
2019-05-17T21:24:56.789Z,30.20
2019-05-17T21:27:29.430Z,29.97
2019-05-17T21:30:02.113Z,31.57
2019-05-17T21:32:35.527Z,33.57
2019-05-17T21:35:09.311Z,31.40
2019-05-17T21:37:41.984Z,31.60
2019-05-17T21:40:15.283Z,32.07
2019-05-17T21:42:47.963Z,31.70
2019-05-17T21:45:21.876Z,31.60
2019-05-17T21:47:54.549Z,30.97
2019-05-17T21:50:27.222Z,32.97
2019-05-17T21:52:59.789Z,33.50
2019-05-17T21:55:32.477Z,33.63
2019-05-17T21:58:05.052Z,33.50
2019-05-17T22:00:52.891Z,34.10
2019-05-17T22:03:25.568Z,35.40
2019-05-17T22:05:58.654Z,34.87
2019-05-17T22:08:31.237Z,35.07
2019-05-17T22:11:04.628Z,35.57
2019-05-17T22:13:37.311Z,33.33
2019-05-17T22:16:19.013Z,32.17
2019-05-17T22:18:44.199Z,31.60
2019-05-17T22:21:16.880Z,33.77
2019-05-17T22:23:49.569Z,32.63
2019-05-17T22:26:22.243Z,32.93
2019-05-17T22:28:54.922Z,32.80
2019-05-17T22:31:28.828Z,32.63
2019-05-17T22:34:01.415Z,32.40
2019-05-17T22:36:34.079Z,35.50
2019-05-17T22:39:08.504Z,33.27
2019-05-17T22:41:41.180Z,34.13
2019-05-17T22:44:14.074Z,36.47
2019-05-17T22:46:47.059Z,35.70
2019-05-17T22:49:19.936Z,34.70
2019-05-17T22:51:52.204Z,33.93
2019-05-17T22:54:24.887Z,35.37
2019-05-17T22:56:57.767Z,36.27
2019-05-17T22:59:30.455Z,35.63
2019-05-17T23:02:03.146Z,37.17
2019-05-17T23:04:35.358Z,38.33
2019-05-17T23:07:08.186Z,38.20
2019-05-17T23:09:41.167Z,41.57
2019-05-17T23:12:15.625Z,40.33
2019-05-17T23:14:48.365Z,42.40
2019-05-17T23:17:21.354Z,43.40
2019-05-17T23:19:54.242Z,40.13
2019-05-17T23:22:26.922Z,41.20
2019-05-17T23:24:59.708Z,40.47
2019-05-17T23:27:32.689Z,39.60
2019-05-17T23:30:07.726Z,41.10
2019-05-17T23:32:40.508Z,42.03
2019-05-17T23:35:13.284Z,41.60
2019-05-17T23:37:46.173Z,40.13
2019-05-17T23:40:19.505Z,40.43
2019-05-17T23:42:52.150Z,40.77
2019-05-17T23:45:25.125Z,43.63
2019-05-17T23:47:57.799Z,42.77
2019-05-17T23:50:31.616Z,42.00
2019-05-17T23:53:04.290Z,41.90
2019-05-17T23:55:36.976Z,41.40
2019-05-17T23:58:09.648Z,41.60
